Time;durP1;ratioP1;P1;durP2;ratioP2;P2;SDS_P1;SDS_P2;PMS_P1;PMS_P2;Temp;Humidity;BMP_temperature;BMP_pressure;BME280_temperature;BME280_humidity;BME280_pressure;Samples;Min_cycle;Max_cycle;Signal;HPM_P1;HPM_P2
2024/04/08 00:00:07;;;;;;;22.58;5.75;;;;;;;;;;5026153;28;20033;-88
2024/04/08 00:02:33;;;;;;;24.27;5.95;;;;;;;;;;5020045;28;20044;-87
2024/04/08 00:05:00;;;;;;;19.05;5.47;;;;;;;;;;5021169;28;20033;-88
2024/04/08 00:07:26;;;;;;;19.27;5.53;;;;;;;;;;5020120;28;20032;-89
2024/04/08 00:09:52;;;;;;;21.70;5.10;;;;;;;;;;5036976;28;20039;-89
2024/04/08 00:12:18;;;;;;;19.25;4.85;;;;;;;;;;5025658;28;20035;-89
2024/04/08 00:14:45;;;;;;;21.83;5.20;;;;;;;;;;5028614;28;20109;-89
2024/04/08 00:17:13;;;;;;;26.13;5.53;;;;;;;;;;5022369;28;20028;-88
2024/04/08 00:19:40;;;;;;;23.23;5.25;;;;;;;;;;5027584;28;20029;-89
2024/04/08 00:22:06;;;;;;;23.80;5.30;;;;;;;;;;5024184;28;20040;-88
2024/04/08 00:24:32;;;;;;;23.50;6.40;;;;;;;;;;5022819;28;20033;-90
2024/04/08 00:27:07;;;;;;;20.85;6.38;;;;;;;;;;5027581;28;20033;-87
2024/04/08 00:29:34;;;;;;;19.25;6.03;;;;;;;;;;5039871;28;20118;-88
2024/04/08 00:32:09;;;;;;;23.00;6.28;;;;;;;;;;5014607;28;20485;-88
2024/04/08 00:34:35;;;;;;;23.77;7.30;;;;;;;;;;5009423;28;20081;-90
2024/04/08 00:37:01;;;;;;;22.85;6.35;;;;;;;;;;5000500;28;20022;-89
2024/04/08 00:39:28;;;;;;;20.88;6.68;;;;;;;;;;5019572;28;20025;-88
2024/04/08 00:41:54;;;;;;;21.20;6.70;;;;;;;;;;5001545;28;20314;-89
2024/04/08 00:44:23;;;;;;;21.65;6.63;;;;;;;;;;5000093;28;20065;-90
2024/04/08 00:46:50;;;;;;;22.58;6.57;;;;;;;;;;4996750;28;20036;-88
2024/04/08 00:49:16;;;;;;;20.00;5.80;;;;;;;;;;4994496;28;20151;-88
2024/04/08 00:51:44;;;;;;;23.88;6.10;;;;;;;;;;4996466;28;20030;-88
2024/04/08 00:54:14;;;;;;;27.00;6.03;;;;;;;;;;5009232;28;20048;-89
2024/04/08 00:56:41;;;;;;;20.08;6.40;;;;;;;;;;4997493;28;20029;-89
2024/04/08 00:59:08;;;;;;;20.10;6.25;;;;;;;;;;5007450;28;20018;-88
2024/04/08 01:01:34;;;;;;;19.95;5.95;;;;;;;;;;5002539;28;20064;-89
2024/04/08 01:04:01;;;;;;;29.98;7.30;;;;;;;;;;5007023;28;20053;-88
2024/04/08 01:06:35;;;;;;;20.95;5.88;;;;;;;;;;5003663;28;20048;-86
2024/04/08 01:09:01;;;;;;;24.10;6.18;;;;;;;;;;4998464;28;20034;-88
2024/04/08 01:11:28;;;;;;;22.17;5.93;;;;;;;;;;4993271;28;20062;-89
2024/04/08 01:13:57;;;;;;;18.90;5.97;;;;;;;;;;5022203;28;20021;-89
2024/04/08 01:16:24;;;;;;;22.42;5.80;;;;;;;;;;5003332;28;20041;-89
2024/04/08 01:18:50;;;;;;;25.13;5.53;;;;;;;;;;5011734;28;20030;-89
2024/04/08 01:21:16;;;;;;;19.75;5.68;;;;;;;;;;5030255;28;20050;-90
2024/04/08 01:23:43;;;;;;;21.50;5.70;;;;;;;;;;5013576;28;20029;-89
2024/04/08 01:26:10;;;;;;;22.63;5.55;;;;;;;;;;5017617;28;20033;-89
2024/04/08 01:28:36;;;;;;;19.38;4.90;;;;;;;;;;5005361;28;20010;-88
2024/04/08 01:31:03;;;;;;;28.55;5.43;;;;;;;;;;5010541;28;20049;-89
2024/04/08 01:33:30;;;;;;;22.77;5.03;;;;;;;;;;5019049;28;20057;-89
2024/04/08 01:36:04;;;;;;;23.50;5.13;;;;;;;;;;5023191;28;20021;-89
2024/04/08 01:38:31;;;;;;;21.35;4.97;;;;;;;;;;5038064;28;20072;-89
2024/04/08 01:40:57;;;;;;;25.25;5.15;;;;;;;;;;5052129;28;20093;-89
2024/04/08 01:43:24;;;;;;;20.83;5.20;;;;;;;;;;5027841;28;20605;-89
2024/04/08 01:45:52;;;;;;;21.92;4.72;;;;;;;;;;5024406;28;20033;-88
2024/04/08 01:48:18;;;;;;;16.98;4.10;;;;;;;;;;5029562;28;20021;-89
2024/04/08 01:50:45;;;;;;;15.73;4.63;;;;;;;;;;5029064;28;20032;-89
2024/04/08 01:53:14;;;;;;;18.85;4.90;;;;;;;;;;5023161;28;20037;-89
2024/04/08 01:55:40;;;;;;;19.38;5.30;;;;;;;;;;5007021;28;20033;-88
2024/04/08 01:58:06;;;;;;;20.38;5.00;;;;;;;;;;5012321;28;20767;-89
2024/04/08 02:00:33;;;;;;;22.60;4.57;;;;;;;;;;5012218;28;20025;-89
2024/04/08 02:02:59;;;;;;;18.02;4.15;;;;;;;;;;5007724;28;20549;-88
2024/04/08 02:05:25;;;;;;;23.00;4.80;;;;;;;;;;5011937;28;20674;-89
2024/04/08 02:07:51;;;;;;;22.88;4.55;;;;;;;;;;5007244;28;20049;-89
2024/04/08 02:10:18;;;;;;;20.40;4.88;;;;;;;;;;5013751;28;20033;-88
2024/04/08 02:12:45;;;;;;;20.52;4.80;;;;;;;;;;5012291;28;20013;-90
2024/04/08 02:15:11;;;;;;;23.35;4.28;;;;;;;;;;5018164;28;20029;-88
2024/04/08 02:17:40;;;;;;;21.48;4.53;;;;;;;;;;5020983;28;20025;-90
2024/04/08 02:20:08;;;;;;;24.40;4.90;;;;;;;;;;5019297;28;20570;-88
2024/04/08 02:22:34;;;;;;;21.23;4.53;;;;;;;;;;5015395;28;20085;-89
2024/04/08 02:25:01;;;;;;;21.83;4.22;;;;;;;;;;5014026;28;21249;-89
2024/04/08 02:27:28;;;;;;;21.92;4.78;;;;;;;;;;5034383;28;20049;-89
2024/04/08 02:29:54;;;;;;;16.27;4.30;;;;;;;;;;5015171;28;20462;-89
2024/04/08 02:32:21;;;;;;;15.73;4.53;;;;;;;;;;5029707;28;20057;-89
2024/04/08 02:34:47;;;;;;;15.35;3.47;;;;;;;;;;5034634;28;20028;-89
2024/04/08 02:37:14;;;;;;;23.17;4.35;;;;;;;;;;5057997;28;20032;-88
2024/04/08 02:39:40;;;;;;;16.40;4.32;;;;;;;;;;5052502;28;20128;-89
2024/04/08 02:42:09;;;;;;;18.48;4.55;;;;;;;;;;5053902;28;20037;-87
2024/04/08 02:44:36;;;;;;;20.27;4.47;;;;;;;;;;5028291;28;20033;-90
2024/04/08 02:47:02;;;;;;;22.27;4.80;;;;;;;;;;5030564;28;20029;-90
2024/04/08 02:49:29;;;;;;;19.52;4.68;;;;;;;;;;5028639;28;20076;-89
2024/04/08 02:51:57;;;;;;;20.15;4.38;;;;;;;;;;5029207;28;20127;-87
2024/04/08 02:54:23;;;;;;;21.77;4.65;;;;;;;;;;5042546;28;20032;-89
2024/04/08 02:56:49;;;;;;;16.35;4.32;;;;;;;;;;5021848;28;20054;-89
2024/04/08 02:59:16;;;;;;;18.40;4.22;;;;;;;;;;5020500;28;20029;-89
2024/04/08 03:01:42;;;;;;;20.63;4.38;;;;;;;;;;5038967;28;20025;-89
2024/04/08 03:04:08;;;;;;;19.98;5.10;;;;;;;;;;5022410;28;20036;-88
2024/04/08 03:06:35;;;;;;;20.10;4.47;;;;;;;;;;5026302;28;20017;-89
2024/04/08 03:09:04;;;;;;;17.17;4.47;;;;;;;;;;5025828;28;20025;-90
2024/04/08 03:11:55;;;;;;;21.10;4.57;;;;;;;;;;5031563;28;20089;-91
2024/04/08 03:14:21;;;;;;;19.90;4.28;;;;;;;;;;5034920;28;20278;-88
2024/04/08 03:16:47;;;;;;;16.92;4.22;;;;;;;;;;5025845;28;20399;-89
2024/04/08 03:19:14;;;;;;;19.90;4.72;;;;;;;;;;5022601;28;20111;-89
2024/04/08 03:21:40;;;;;;;15.77;4.00;;;;;;;;;;5023513;28;20033;-88
2024/04/08 03:24:07;;;;;;;21.05;5.13;;;;;;;;;;5021904;28;20086;-89
2024/04/08 03:26:33;;;;;;;19.25;4.22;;;;;;;;;;5022386;28;20108;-90
2024/04/08 03:28:59;;;;;;;20.65;4.80;;;;;;;;;;5041034;28;20052;-88
2024/04/08 03:31:26;;;;;;;21.75;4.68;;;;;;;;;;5022057;28;20054;-88
2024/04/08 03:33:53;;;;;;;22.08;4.75;;;;;;;;;;5009100;28;21231;-90
2024/04/08 03:36:20;;;;;;;19.58;4.60;;;;;;;;;;5008404;28;20029;-90
2024/04/08 03:38:46;;;;;;;19.98;4.70;;;;;;;;;;5006479;28;20030;-87
2024/04/08 03:41:12;;;;;;;23.70;4.50;;;;;;;;;;5011588;28;20024;-89
2024/04/08 03:43:39;;;;;;;16.75;3.83;;;;;;;;;;5015134;28;20043;-89
2024/04/08 03:46:05;;;;;;;15.63;3.30;;;;;;;;;;5008900;28;20089;-89
2024/04/08 03:48:31;;;;;;;14.35;4.18;;;;;;;;;;5010470;28;20029;-89
2024/04/08 03:51:06;;;;;;;21.98;4.43;;;;;;;;;;5004729;28;20034;-89
2024/04/08 03:53:32;;;;;;;20.60;4.20;;;;;;;;;;5011386;28;20041;-88
2024/04/08 03:56:08;;;;;;;16.20;4.00;;;;;;;;;;5005374;28;20026;-88
2024/04/08 03:58:34;;;;;;;17.27;4.10;;;;;;;;;;5007355;28;20633;-88
2024/04/08 04:01:01;;;;;;;15.38;3.70;;;;;;;;;;5009288;28;20030;-89
2024/04/08 04:03:28;;;;;;;18.42;4.07;;;;;;;;;;5007524;28;20037;-90
2024/04/08 04:05:58;;;;;;;17.20;4.00;;;;;;;;;;5023636;28;20037;-89
2024/04/08 04:08:25;;;;;;;17.98;4.05;;;;;;;;;;5008753;28;20060;-89
2024/04/08 04:10:51;;;;;;;21.05;4.32;;;;;;;;;;5004963;28;20049;-88
2024/04/08 04:13:18;;;;;;;17.33;4.03;;;;;;;;;;5009816;28;20418;-89
2024/04/08 04:15:44;;;;;;;17.40;4.10;;;;;;;;;;5001797;28;20033;-89
2024/04/08 04:18:11;;;;;;;19.42;4.50;;;;;;;;;;5032638;28;20056;-88
2024/04/08 04:20:41;;;;;;;24.73;5.53;;;;;;;;;;5012472;28;20032;-89
2024/04/08 04:23:09;;;;;;;26.25;5.97;;;;;;;;;;5008736;28;20708;-89
2024/04/08 04:25:36;;;;;;;19.92;5.30;;;;;;;;;;5011349;28;20036;-89
2024/04/08 04:28:03;;;;;;;18.70;5.72;;;;;;;;;;5010250;28;20017;-88
2024/04/08 04:30:29;;;;;;;21.33;6.07;;;;;;;;;;5006265;28;20029;-89
2024/04/08 04:32:56;;;;;;;18.52;5.45;;;;;;;;;;5012640;28;20054;-89
2024/04/08 04:35:26;;;;;;;18.02;3.85;;;;;;;;;;4995511;28;20567;-89
2024/04/08 04:37:52;;;;;;;22.35;4.97;;;;;;;;;;4994295;28;20037;-89
2024/04/08 04:40:18;;;;;;;23.67;5.32;;;;;;;;;;4993683;28;20041;-89
2024/04/08 04:42:45;;;;;;;16.60;4.80;;;;;;;;;;4996981;28;20036;-89
2024/04/08 04:45:11;;;;;;;21.92;4.75;;;;;;;;;;4991653;28;20116;-89
2024/04/08 04:47:38;;;;;;;21.38;5.35;;;;;;;;;;4994464;28;20037;-89
2024/04/08 04:50:04;;;;;;;23.40;5.47;;;;;;;;;;4992164;28;20037;-89
2024/04/08 04:52:31;;;;;;;27.17;5.70;;;;;;;;;;4991836;28;20060;-88
2024/04/08 04:54:59;;;;;;;21.85;5.63;;;;;;;;;;4993093;28;20045;-88
2024/04/08 04:57:25;;;;;;;19.77;5.22;;;;;;;;;;4997348;28;20044;-89
2024/04/08 04:59:53;;;;;;;17.45;4.60;;;;;;;;;;4997626;28;20034;-88
2024/04/08 05:02:19;;;;;;;19.15;4.22;;;;;;;;;;4996075;28;20038;-89
2024/04/08 05:04:46;;;;;;;22.83;4.65;;;;;;;;;;4998590;28;20124;-88
2024/04/08 05:07:13;;;;;;;19.60;4.57;;;;;;;;;;5001807;28;20030;-89
2024/04/08 05:09:39;;;;;;;20.25;4.35;;;;;;;;;;4997034;28;20472;-90
2024/04/08 05:12:06;;;;;;;16.20;3.95;;;;;;;;;;5016889;28;20058;-88
2024/04/08 05:14:32;;;;;;;19.08;4.50;;;;;;;;;;5012582;28;20030;-87
2024/04/08 05:17:00;;;;;;;19.67;4.63;;;;;;;;;;4993680;28;20472;-88
2024/04/08 05:19:26;;;;;;;23.00;4.88;;;;;;;;;;4999209;28;20834;-90
2024/04/08 05:21:53;;;;;;;18.85;4.43;;;;;;;;;;4997179;28;20026;-90
2024/04/08 05:24:22;;;;;;;26.45;4.65;;;;;;;;;;4998563;28;20037;-90
2024/04/08 05:26:49;;;;;;;15.35;4.25;;;;;;;;;;4995374;28;20029;-90
2024/04/08 05:29:15;;;;;;;23.83;4.95;;;;;;;;;;5002232;28;20149;-88
2024/04/08 05:31:42;;;;;;;19.73;4.20;;;;;;;;;;5001043;28;20141;-89
2024/04/08 05:34:09;;;;;;;21.15;4.28;;;;;;;;;;4994647;28;20041;-88
2024/04/08 05:36:35;;;;;;;21.00;5.00;;;;;;;;;;4996342;28;20116;-88
2024/04/08 05:39:04;;;;;;;23.90;4.82;;;;;;;;;;5003779;28;20033;-89
2024/04/08 05:41:31;;;;;;;23.75;4.40;;;;;;;;;;5001058;28;20068;-88
2024/04/08 05:43:58;;;;;;;18.27;4.45;;;;;;;;;;4997771;28;20029;-88
2024/04/08 05:46:27;;;;;;;23.10;5.72;;;;;;;;;;5007389;28;20147;-88
2024/04/08 05:48:53;;;;;;;21.30;4.97;;;;;;;;;;5001276;28;20100;-88
2024/04/08 05:51:21;;;;;;;18.40;4.78;;;;;;;;;;4993633;28;20653;-88
2024/04/08 05:53:48;;;;;;;23.95;5.30;;;;;;;;;;5013827;28;20594;-88
2024/04/08 05:56:14;;;;;;;21.80;5.10;;;;;;;;;;5001058;28;20033;-88
2024/04/08 05:58:40;;;;;;;20.90;4.72;;;;;;;;;;5002024;28;20022;-88
2024/04/08 06:01:07;;;;;;;19.90;4.57;;;;;;;;;;5019806;28;20087;-88
2024/04/08 06:03:36;;;;;;;23.15;4.95;;;;;;;;;;5023164;28;20112;-88
2024/04/08 06:06:06;;;;;;;19.90;4.57;;;;;;;;;;5004070;28;20032;-89
2024/04/08 06:08:33;;;;;;;19.33;4.53;;;;;;;;;;5004911;28;20033;-89
2024/04/08 06:11:05;;;;;;;20.10;5.00;;;;;;;;;;5004784;28;20056;-90
2024/04/08 06:13:31;;;;;;;22.10;5.32;;;;;;;;;;4997023;28;20088;-85
2024/04/08 06:15:58;;;;;;;21.05;4.80;;;;;;;;;;5007023;28;20038;-84
2024/04/08 06:18:24;;;;;;;21.67;5.47;;;;;;;;;;4985867;28;20400;-84
2024/04/08 06:20:54;;;;;;;20.20;4.88;;;;;;;;;;4985362;28;20056;-84
2024/04/08 06:23:21;;;;;;;19.63;5.13;;;;;;;;;;4990508;28;20030;-84
2024/04/08 06:25:48;;;;;;;19.92;4.80;;;;;;;;;;4996263;28;20036;-86
2024/04/08 06:28:15;;;;;;;25.73;5.22;;;;;;;;;;4986534;28;20045;-80
2024/04/08 06:30:42;;;;;;;21.20;5.13;;;;;;;;;;4980684;28;20026;-78
2024/04/08 06:33:11;;;;;;;25.73;6.45;;;;;;;;;;4982176;28;20566;-81
2024/04/08 06:35:37;;;;;;;21.85;5.53;;;;;;;;;;4981624;28;20045;-79
2024/04/08 06:38:03;;;;;;;25.55;5.07;;;;;;;;;;5000430;28;20033;-79
2024/04/08 06:40:29;;;;;;;25.00;5.82;;;;;;;;;;4984837;28;20021;-78
2024/04/08 06:42:56;;;;;;;20.27;5.70;;;;;;;;;;4980359;28;20526;-78
2024/04/08 06:45:22;;;;;;;23.75;5.53;;;;;;;;;;5000971;28;20104;-82
2024/04/08 06:47:48;;;;;;;22.67;4.65;;;;;;;;;;4976919;28;20030;-79
2024/04/08 06:50:15;;;;;;;15.23;4.60;;;;;;;;;;4981118;28;20574;-78
2024/04/08 06:52:41;;;;;;;24.08;5.68;;;;;;;;;;4974762;28;20697;-77
2024/04/08 06:55:07;;;;;;;22.42;6.75;;;;;;;;;;4974540;28;20030;-79
2024/04/08 06:57:34;;;;;;;28.85;8.43;;;;;;;;;;4992430;28;20408;-80
2024/04/08 07:00:00;;;;;;;24.90;9.23;;;;;;;;;;4977125;28;20592;-80
2024/04/08 07:02:26;;;;;;;24.88;8.77;;;;;;;;;;4993356;28;20029;-80
2024/04/08 07:04:52;;;;;;;24.88;8.35;;;;;;;;;;4979518;28;20088;-80
2024/04/08 07:07:19;;;;;;;23.85;8.07;;;;;;;;;;4996030;28;20025;-80
2024/04/08 07:09:45;;;;;;;26.52;6.03;;;;;;;;;;4976271;28;20478;-81
2024/04/08 07:12:11;;;;;;;22.55;7.65;;;;;;;;;;4979171;28;20526;-78
2024/04/08 07:14:37;;;;;;;22.60;5.97;;;;;;;;;;4972481;28;20043;-81
2024/04/08 07:17:04;;;;;;;21.88;5.88;;;;;;;;;;4981032;28;20030;-81
2024/04/08 07:19:33;;;;;;;22.13;5.80;;;;;;;;;;4992065;28;20045;-84
2024/04/08 07:22:00;;;;;;;24.27;5.38;;;;;;;;;;4987644;28;20029;-84
2024/04/08 07:24:26;;;;;;;22.90;5.55;;;;;;;;;;4995034;28;20033;-86
2024/04/08 07:26:52;;;;;;;21.83;5.85;;;;;;;;;;4982172;28;20927;-81
2024/04/08 07:29:19;;;;;;;23.75;7.63;;;;;;;;;;4976219;28;20057;-79
2024/04/08 07:31:45;;;;;;;20.85;6.97;;;;;;;;;;4992359;28;20053;-78
2024/04/08 07:34:12;;;;;;;26.45;5.90;;;;;;;;;;4981957;28;20822;-85
2024/04/08 07:36:39;;;;;;;32.00;6.28;;;;;;;;;;4981899;28;20081;-82
2024/04/08 07:39:05;;;;;;;28.50;6.68;;;;;;;;;;4996790;28;20022;-80
2024/04/08 07:41:31;;;;;;;24.42;6.25;;;;;;;;;;4981143;28;20042;-84
2024/04/08 07:43:57;;;;;;;20.35;6.13;;;;;;;;;;4998360;28;20036;-84
2024/04/08 07:46:24;;;;;;;24.90;6.57;;;;;;;;;;4978214;28;20037;-82
2024/04/08 07:48:50;;;;;;;26.98;6.22;;;;;;;;;;4971435;28;20516;-81
2024/04/08 07:51:16;;;;;;;19.25;5.90;;;;;;;;;;4990637;28;20037;-80
2024/04/08 07:53:42;;;;;;;19.63;5.32;;;;;;;;;;4975584;28;20571;-79
2024/04/08 07:56:11;;;;;;;16.80;4.78;;;;;;;;;;4977202;28;20037;-80
2024/04/08 07:58:37;;;;;;;22.85;5.90;;;;;;;;;;4975054;28;20671;-79
2024/04/08 08:01:04;;;;;;;20.08;5.90;;;;;;;;;;4976073;28;20045;-80
2024/04/08 08:03:30;;;;;;;26.48;5.68;;;;;;;;;;4976836;28;20034;-79
2024/04/08 08:05:57;;;;;;;19.77;4.88;;;;;;;;;;4973821;28;20033;-79
2024/04/08 08:08:27;;;;;;;22.73;6.72;;;;;;;;;;4974656;28;20526;-80
2024/04/08 08:10:55;;;;;;;23.40;5.45;;;;;;;;;;4970180;28;21406;-78
2024/04/08 08:13:22;;;;;;;27.13;6.13;;;;;;;;;;4974962;28;20140;-81
2024/04/08 08:15:55;;;;;;;22.65;5.85;;;;;;;;;;4971627;28;20026;-80
2024/04/08 08:18:21;;;;;;;23.90;6.22;;;;;;;;;;4975977;28;20167;-79
2024/04/08 08:20:50;;;;;;;29.60;6.07;;;;;;;;;;4967809;28;20432;-78
2024/04/08 08:23:16;;;;;;;40.70;10.77;;;;;;;;;;4971191;28;20042;-78
2024/04/08 08:25:43;;;;;;;36.13;12.50;;;;;;;;;;4971830;28;20034;-78
2024/04/08 08:28:09;;;;;;;47.67;12.15;;;;;;;;;;4982379;28;20041;-85
2024/04/08 08:30:36;;;;;;;40.95;11.43;;;;;;;;;;4990652;28;20025;-88
2024/04/08 08:33:03;;;;;;;49.40;10.90;;;;;;;;;;4997093;28;20053;-89
2024/04/08 08:35:30;;;;;;;45.03;9.38;;;;;;;;;;5000316;28;20041;-87
2024/04/08 08:37:59;;;;;;;57.20;10.52;;;;;;;;;;5018430;28;20426;-86
2024/04/08 08:40:27;;;;;;;49.97;9.70;;;;;;;;;;5018948;28;20105;-88
2024/04/08 08:42:55;;;;;;;49.88;9.18;;;;;;;;;;5004507;28;20037;-88
2024/04/08 08:45:22;;;;;;;49.10;9.25;;;;;;;;;;5006768;28;20033;-87
2024/04/08 08:47:48;;;;;;;47.10;9.02;;;;;;;;;;4996042;28;20048;-85
2024/04/08 08:50:14;;;;;;;47.78;9.00;;;;;;;;;;4990575;28;20041;-87
2024/04/08 08:52:44;;;;;;;41.42;8.63;;;;;;;;;;4994577;28;20044;-87
2024/04/08 08:55:10;;;;;;;45.20;9.30;;;;;;;;;;4990240;28;20034;-87
2024/04/08 08:57:36;;;;;;;41.65;8.23;;;;;;;;;;4987812;28;20717;-87
2024/04/08 09:00:06;;;;;;;37.72;8.27;;;;;;;;;;4985405;28;20040;-88
2024/04/08 09:02:33;;;;;;;47.38;8.80;;;;;;;;;;4989789;28;20507;-85
2024/04/08 09:04:59;;;;;;;43.63;8.40;;;;;;;;;;4995109;28;20038;-86
2024/04/08 09:07:26;;;;;;;42.83;8.57;;;;;;;;;;4992770;28;20116;-85
2024/04/08 09:09:53;;;;;;;47.53;8.93;;;;;;;;;;4994768;28;20041;-85
2024/04/08 09:12:20;;;;;;;39.38;8.05;;;;;;;;;;4996949;28;20519;-85
2024/04/08 09:14:49;;;;;;;42.20;9.25;;;;;;;;;;4992816;28;20068;-86
2024/04/08 09:17:16;;;;;;;38.08;8.35;;;;;;;;;;4992263;28;20353;-86
2024/04/08 09:19:42;;;;;;;50.35;9.68;;;;;;;;;;5007730;28;20037;-87
2024/04/08 09:22:09;;;;;;;49.85;10.15;;;;;;;;;;4989974;28;20033;-84
2024/04/08 09:24:35;;;;;;;43.83;9.68;;;;;;;;;;4991113;28;20695;-86
2024/04/08 09:27:04;;;;;;;49.95;9.70;;;;;;;;;;5010516;28;20037;-85
2024/04/08 09:29:30;;;;;;;47.95;9.30;;;;;;;;;;4990289;28;20041;-84
2024/04/08 09:32:00;;;;;;;43.85;9.73;;;;;;;;;;4988814;28;20083;-85
2024/04/08 09:34:27;;;;;;;50.17;9.80;;;;;;;;;;4994424;28;20052;-80
2024/04/08 09:36:55;;;;;;;46.97;9.18;;;;;;;;;;4992134;28;22039;-81
2024/04/08 09:39:22;;;;;;;53.83;10.50;;;;;;;;;;4995950;28;20020;-79
2024/04/08 09:41:49;;;;;;;46.22;9.93;;;;;;;;;;4975295;28;20045;-81
2024/04/08 09:44:17;;;;;;;48.42;9.05;;;;;;;;;;4980696;28;20025;-81
2024/04/08 09:46:43;;;;;;;55.03;9.90;;;;;;;;;;4995874;28;20038;-81
2024/04/08 09:49:10;;;;;;;53.63;10.88;;;;;;;;;;4980654;28;20205;-81
2024/04/08 09:51:39;;;;;;;46.47;9.68;;;;;;;;;;4977330;28;20461;-84
2024/04/08 09:54:05;;;;;;;51.33;9.80;;;;;;;;;;4992188;28;20401;-82
2024/04/08 09:56:32;;;;;;;67.03;11.60;;;;;;;;;;4981438;28;20041;-83
2024/04/08 09:59:05;;;;;;;69.40;11.38;;;;;;;;;;4979009;28;20027;-82
2024/04/08 10:01:31;;;;;;;63.92;11.38;;;;;;;;;;4996891;28;20516;-82
2024/04/08 10:04:00;;;;;;;51.83;11.05;;;;;;;;;;4971466;28;20037;-79
2024/04/08 10:06:27;;;;;;;57.97;11.63;;;;;;;;;;4992960;28;20056;-82
2024/04/08 10:08:53;;;;;;;55.00;10.95;;;;;;;;;;4993896;28;20037;-80
2024/04/08 10:11:19;;;;;;;59.25;11.02;;;;;;;;;;4977972;28;20022;-79
2024/04/08 10:13:49;;;;;;;54.95;11.57;;;;;;;;;;4975964;28;20170;-81
2024/04/08 10:16:16;;;;;;;58.50;12.13;;;;;;;;;;4979108;28;20029;-82
2024/04/08 10:18:52;;;;;;;59.10;11.80;;;;;;;;;;4977558;28;20041;-80
2024/04/08 10:21:19;;;;;;;64.72;11.77;;;;;;;;;;4980197;28;20053;-81
2024/04/08 10:23:45;;;;;;;57.70;11.98;;;;;;;;;;4994674;28;20033;-79
2024/04/08 10:26:15;;;;;;;62.80;11.93;;;;;;;;;;4995810;28;20113;-80
2024/04/08 10:28:42;;;;;;;56.72;11.63;;;;;;;;;;4975576;28;20025;-80
2024/04/08 10:31:09;;;;;;;61.10;11.63;;;;;;;;;;4983539;28;20036;-80
2024/04/08 10:33:35;;;;;;;54.92;11.43;;;;;;;;;;5001542;28;20029;-80
2024/04/08 10:36:02;;;;;;;54.53;11.25;;;;;;;;;;5000827;28;20071;-83
2024/04/08 10:38:31;;;;;;;60.28;12.02;;;;;;;;;;5015580;28;20618;-86
2024/04/08 10:41:07;;;;;;;53.40;11.70;;;;;;;;;;5013141;28;20064;-85
2024/04/08 10:43:37;;;;;;;61.42;12.60;;;;;;;;;;5006120;28;20021;-84
2024/04/08 10:46:03;;;;;;;55.30;11.75;;;;;;;;;;5016038;28;20140;-86
2024/04/08 10:48:31;;;;;;;49.85;11.73;;;;;;;;;;5009219;28;20068;-86
2024/04/08 10:50:57;;;;;;;62.65;11.55;;;;;;;;;;5007582;28;20033;-86
2024/04/08 10:53:23;;;;;;;58.90;11.73;;;;;;;;;;5008559;28;20032;-84
2024/04/08 10:55:49;;;;;;;60.83;11.77;;;;;;;;;;5004812;28;20480;-85
2024/04/08 10:58:15;;;;;;;52.97;11.90;;;;;;;;;;5015828;28;20040;-86
2024/04/08 11:00:42;;;;;;;59.80;13.25;;;;;;;;;;5016053;28;20025;-86
2024/04/08 11:03:09;;;;;;;51.15;12.15;;;;;;;;;;5013101;28;20037;-77
2024/04/08 11:05:35;;;;;;;48.95;11.35;;;;;;;;;;5014727;28;20578;-80
2024/04/08 11:08:02;;;;;;;46.42;10.15;;;;;;;;;;4999321;28;20041;-78
2024/04/08 11:10:29;;;;;;;47.58;10.38;;;;;;;;;;5000138;28;20033;-78
2024/04/08 11:12:55;;;;;;;44.35;10.40;;;;;;;;;;4996785;28;20538;-79
2024/04/08 11:15:26;;;;;;;45.38;9.70;;;;;;;;;;4998660;28;20072;-78
2024/04/08 11:17:57;;;;;;;41.78;9.80;;;;;;;;;;5013934;28;20594;-79
2024/04/08 11:20:23;;;;;;;45.28;10.27;;;;;;;;;;4996577;28;20029;-78
2024/04/08 11:22:49;;;;;;;41.80;9.07;;;;;;;;;;5012347;28;20049;-78
2024/04/08 11:25:16;;;;;;;44.40;9.05;;;;;;;;;;5002760;28;20041;-78
2024/04/08 11:27:45;;;;;;;52.13;9.95;;;;;;;;;;4997329;28;20040;-78
2024/04/08 11:30:13;;;;;;;42.80;10.35;;;;;;;;;;5020498;28;20060;-78
2024/04/08 11:32:40;;;;;;;37.92;9.35;;;;;;;;;;4996617;28;20109;-78
2024/04/08 11:35:06;;;;;;;52.00;9.75;;;;;;;;;;4980577;28;20045;-78
2024/04/08 11:37:33;;;;;;;41.33;9.60;;;;;;;;;;4980205;28;20056;-79
2024/04/08 11:39:59;;;;;;;51.08;10.18;;;;;;;;;;4978960;28;20033;-78
2024/04/08 11:42:25;;;;;;;37.85;9.50;;;;;;;;;;4980241;28;20042;-79
2024/04/08 11:44:58;;;;;;;44.20;10.68;;;;;;;;;;4972527;28;20034;-78
2024/04/08 11:47:25;;;;;;;52.78;10.98;;;;;;;;;;5000770;28;20148;-78
2024/04/08 11:49:51;;;;;;;43.78;9.90;;;;;;;;;;4981713;28;20550;-78
2024/04/08 11:52:18;;;;;;;47.50;10.00;;;;;;;;;;4978075;28;20583;-78
2024/04/08 11:54:44;;;;;;;48.25;10.43;;;;;;;;;;4969565;28;21176;-80
2024/04/08 11:57:13;;;;;;;48.70;11.68;;;;;;;;;;4976781;28;21294;-80
2024/04/08 12:01:23;;;;;;;53.75;11.45;;;;;;;;;;5446580;25;20302;-69
2024/04/08 12:03:50;;;;;;;46.13;10.77;;;;;;;;;;5442646;26;20002;-66
2024/04/08 12:06:18;;;;;;;51.15;11.63;;;;;;;;;;5445148;25;20020;-67
2024/04/08 12:08:44;;;;;;;50.38;10.35;;;;;;;;;;5441263;25;20958;-67
2024/04/08 12:11:12;;;;;;;43.83;10.80;;;;;;;;;;5445521;25;20082;-67
2024/04/08 12:13:38;;;;;;;43.67;10.30;;;;;;;;;;5426281;25;20021;-67
2024/04/08 12:16:05;;;;;;;49.03;11.20;;;;;;;;;;5446577;25;20002;-67
2024/04/08 12:18:33;;;;;;;52.63;10.40;;;;;;;;;;5449345;26;20317;-65
2024/04/08 12:21:04;;;;;;;44.85;11.10;;;;;;;;;;5445103;26;20006;-65
2024/04/08 12:23:33;;;;;;;48.85;11.07;;;;;;;;;;5445478;25;20009;-65
2024/04/08 12:26:00;;;;;;;49.13;10.80;;;;;;;;;;5440537;25;20000;-65
2024/04/08 12:28:27;;;;;;;48.55;10.65;;;;;;;;;;5446030;26;20466;-65
2024/04/08 12:30:56;;;;;;;44.60;9.50;;;;;;;;;;5437130;25;20024;-66
2024/04/08 12:33:23;;;;;;;55.38;11.20;;;;;;;;;;5447658;25;20818;-66
2024/04/08 12:35:51;;;;;;;45.28;9.30;;;;;;;;;;5443626;25;20010;-66
2024/04/08 12:38:20;;;;;;;45.35;9.70;;;;;;;;;;5448322;25;20018;-66
2024/04/08 12:40:48;;;;;;;41.50;9.18;;;;;;;;;;5438103;26;20903;-66
2024/04/08 12:43:15;;;;;;;37.05;9.25;;;;;;;;;;5412047;26;20026;-66
2024/04/08 12:45:43;;;;;;;39.97;9.55;;;;;;;;;;5402821;26;20425;-66
2024/04/08 12:48:11;;;;;;;42.15;8.68;;;;;;;;;;5370627;26;20559;-67
2024/04/08 12:50:41;;;;;;;39.58;9.15;;;;;;;;;;5406841;26;20047;-66
2024/04/08 12:53:10;;;;;;;41.58;9.45;;;;;;;;;;5413794;26;20007;-66
2024/04/08 12:55:38;;;;;;;34.45;8.32;;;;;;;;;;5410391;26;20014;-66
2024/04/08 12:58:15;;;;;;;37.33;8.90;;;;;;;;;;5416475;26;20599;-66
2024/04/08 13:00:44;;;;;;;35.35;7.50;;;;;;;;;;5397096;26;20023;-65
2024/04/08 13:03:11;;;;;;;33.60;7.70;;;;;;;;;;5412988;26;20007;-68
2024/04/08 13:05:41;;;;;;;34.20;7.43;;;;;;;;;;5406599;26;20054;-67
2024/04/08 13:08:10;;;;;;;32.38;7.85;;;;;;;;;;5382856;26;20254;-67
2024/04/08 13:10:39;;;;;;;33.83;7.82;;;;;;;;;;5406692;26;20010;-65
2024/04/08 13:13:06;;;;;;;30.67;7.05;;;;;;;;;;5400966;26;20560;-66
2024/04/08 13:15:34;;;;;;;27.52;6.57;;;;;;;;;;5397300;26;20011;-66
2024/04/08 13:18:01;;;;;;;29.65;6.78;;;;;;;;;;5398391;26;20657;-66
2024/04/08 13:20:28;;;;;;;24.92;6.03;;;;;;;;;;5397618;26;20006;-66
2024/04/08 13:22:54;;;;;;;32.80;6.90;;;;;;;;;;5386405;26;25050;-66
2024/04/08 13:25:25;;;;;;;29.23;6.60;;;;;;;;;;5386318;26;20641;-66
2024/04/08 13:27:53;;;;;;;32.53;7.38;;;;;;;;;;5381341;26;20149;-66
2024/04/08 13:30:20;;;;;;;29.67;7.28;;;;;;;;;;5391828;26;20019;-68
2024/04/08 13:32:47;;;;;;;26.05;6.30;;;;;;;;;;5385966;26;20038;-68
2024/04/08 13:35:15;;;;;;;24.42;6.18;;;;;;;;;;5394592;26;20007;-67
2024/04/08 13:37:42;;;;;;;21.75;6.38;;;;;;;;;;5385393;26;20008;-71
2024/04/08 13:40:11;;;;;;;28.90;6.07;;;;;;;;;;5394739;26;20006;-67
2024/04/08 13:42:41;;;;;;;25.63;6.38;;;;;;;;;;5382454;26;20476;-67
2024/04/08 13:45:08;;;;;;;27.02;6.03;;;;;;;;;;5388844;26;20025;-67
2024/04/08 13:47:36;;;;;;;25.17;5.53;;;;;;;;;;5384078;26;20007;-67
2024/04/08 13:50:04;;;;;;;25.40;6.97;;;;;;;;;;5389873;26;20003;-67
2024/04/08 13:52:31;;;;;;;20.30;5.85;;;;;;;;;;5387102;26;20609;-66
2024/04/08 13:54:59;;;;;;;25.65;5.93;;;;;;;;;;5386491;26;20015;-65
2024/04/08 13:57:28;;;;;;;27.92;6.50;;;;;;;;;;5390393;26;20030;-65
2024/04/08 13:59:56;;;;;;;25.67;5.93;;;;;;;;;;5368610;26;20011;-65
2024/04/08 14:02:24;;;;;;;23.35;5.90;;;;;;;;;;5355426;26;20019;-66
2024/04/08 14:04:52;;;;;;;28.08;5.93;;;;;;;;;;5348640;26;20023;-65
2024/04/08 14:07:19;;;;;;;24.13;5.55;;;;;;;;;;5355781;26;20768;-66
2024/04/08 14:09:47;;;;;;;28.05;5.63;;;;;;;;;;5351241;26;20007;-68
2024/04/08 14:12:16;;;;;;;24.13;5.93;;;;;;;;;;5356222;26;20587;-66
2024/04/08 14:14:45;;;;;;;32.67;6.35;;;;;;;;;;5333775;26;20022;-65
2024/04/08 14:17:12;;;;;;;25.27;6.10;;;;;;;;;;5355778;26;20479;-68
2024/04/08 14:19:41;;;;;;;21.63;5.93;;;;;;;;;;5347732;26;20055;-65
2024/04/08 14:22:10;;;;;;;28.73;5.97;;;;;;;;;;5315318;26;20642;-65
2024/04/08 14:24:39;;;;;;;31.58;7.00;;;;;;;;;;5314450;26;20015;-65
2024/04/08 14:27:10;;;;;;;27.20;6.65;;;;;;;;;;5319932;26;20154;-65
2024/04/08 14:29:37;;;;;;;27.42;6.18;;;;;;;;;;5314541;26;20023;-65